Time;durP1;ratioP1;P1;durP2;ratioP2;P2;SDS_P1;SDS_P2;PMS_P1;PMS_P2;Temp;Humidity;BMP_temperature;BMP_pressure;BME280_temperature;BME280_humidity;BME280_pressure;Samples;Min_cycle;Max_cycle;Signal;HPM_P1;HPM_P2
2022/04/07 00:01:29;;;;;;;2.70;1.27;;;;;;;9.10;99.31;99246.72;5076004;28;20043;-35
2022/04/07 00:03:54;;;;;;;2.38;1.20;;;;;;;9.11;98.20;99255.63;5074884;28;20024;-35
2022/04/07 00:06:19;;;;;;;2.97;0.90;;;;;;;9.08;99.19;99239.97;5075255;28;20115;-35
2022/04/07 00:08:45;;;;;;;1.90;0.87;;;;;;;9.07;98.61;99230.25;5075109;28;20105;-35
2022/04/07 00:11:10;;;;;;;3.87;1.20;;;;;;;9.01;99.30;99216.72;5073557;28;20043;-34
2022/04/07 00:13:36;;;;;;;4.47;1.08;;;;;;;8.91;98.97;99205.88;5075143;28;20031;-35
2022/04/07 00:16:01;;;;;;;5.67;1.93;;;;;;;8.95;98.81;99223.19;5075072;28;20033;-34
2022/04/07 00:18:27;;;;;;;4.10;1.30;;;;;;;8.96;98.55;99211.31;5074714;28;20024;-35
2022/04/07 00:20:53;;;;;;;3.17;1.00;;;;;;;8.94;98.47;99204.56;5075100;28;20024;-35
2022/04/07 00:23:20;;;;;;;7.00;1.98;;;;;;;8.95;98.17;99203.50;5074541;28;20120;-34
2022/04/07 00:25:45;;;;;;;;;;;;;;;8.96;98.29;99210.50;5075819;28;20056;-35
2022/04/07 00:28:11;;;;;;;5.47;2.28;;;;;;;8.88;99.08;99206.44;5074511;28;20378;-35
2022/04/07 00:30:39;;;;;;;4.15;1.25;;;;;;;8.86;100.00;99197.78;5075373;28;20038;-35
2022/04/07 00:33:08;;;;;;;3.58;1.10;;;;;;;8.81;100.00;99195.03;5074443;28;20472;-35
2022/04/07 00:35:34;;;;;;;5.60;1.45;;;;;;;8.77;100.00;99173.19;5074103;28;20029;-34
2022/04/07 00:38:00;;;;;;;4.95;1.42;;;;;;;8.77;100.00;99177.75;5074118;28;20369;-34
2022/04/07 00:40:25;;;;;;;3.67;0.90;;;;;;;8.74;100.00;99175.59;5074310;28;20078;-35
2022/04/07 00:42:52;;;;;;;3.50;1.33;;;;;;;8.73;100.00;99172.06;5074156;28;20478;-35
2022/04/07 00:45:19;;;;;;;5.35;1.25;;;;;;;8.72;100.00;99158.88;5074190;28;20047;-34
2022/04/07 00:47:46;;;;;;;3.22;1.40;;;;;;;8.64;100.00;99151.28;5074347;28;20040;-35
2022/04/07 00:50:14;;;;;;;4.90;1.38;;;;;;;8.70;100.00;99156.44;5074561;28;20055;-35
2022/04/07 00:52:51;;;;;;;5.28;1.42;;;;;;;8.68;100.00;99153.16;5073887;28;20052;-35
2022/04/07 00:55:18;;;;;;;3.28;1.10;;;;;;;8.60;100.00;99128.63;5074374;28;20020;-35
2022/04/07 00:57:45;;;;;;;3.78;1.52;;;;;;;8.64;100.00;99140.50;5073854;28;20032;-35
2022/04/07 01:00:12;;;;;;;3.00;1.00;;;;;;;8.62;100.00;99146.13;5074110;28;20311;-34
2022/04/07 01:02:38;;;;;;;4.47;1.27;;;;;;;8.62;100.00;99131.84;5073535;28;20059;-35
2022/04/07 01:05:04;;;;;;;3.95;1.30;;;;;;;8.64;100.00;99135.13;5074420;28;20406;-35
2022/04/07 01:07:32;;;;;;;5.82;1.70;;;;;;;8.63;100.00;99128.88;5073929;28;20106;-35
2022/04/07 01:09:59;;;;;;;5.10;1.75;;;;;;;8.56;100.00;99116.72;5074141;28;20032;-35
2022/04/07 01:12:24;;;;;;;9.65;2.05;;;;;;;8.60;100.00;99118.66;5073812;28;20365;-35
2022/04/07 01:15:00;;;;;;;4.43;1.90;;;;;;;8.63;100.00;99106.53;5073282;28;20047;-35
2022/04/07 01:17:27;;;;;;;8.35;2.00;;;;;;;8.63;100.00;99118.13;5073527;28;20271;-35
2022/04/07 01:19:53;;;;;;;5.03;1.80;;;;;;;8.61;100.00;99109.50;5073885;28;20032;-34
2022/04/07 01:22:19;;;;;;;;;;;;;;;8.64;100.00;99108.16;5074028;28;20020;-34
2022/04/07 01:24:44;;;;;;;6.15;1.67;;;;;;;8.51;100.00;99093.25;5073259;28;19913;-34
2022/04/07 01:27:12;;;;;;;5.97;1.65;;;;;;;8.58;100.00;99103.81;5073638;28;20035;-34
2022/04/07 01:29:38;;;;;;;4.10;1.67;;;;;;;8.47;100.00;99079.50;5073160;28;20039;-34
2022/04/07 01:32:25;;;;;;;4.07;1.63;;;;;;;8.60;100.00;99088.22;5073095;28;20032;-34
2022/04/07 01:34:50;;;;;;;7.35;1.63;;;;;;;8.58;100.00;99085.75;5073045;28;20044;-34
2022/04/07 01:37:18;;;;;;;6.13;2.15;;;;;;;8.43;100.00;99054.16;5073484;28;20031;-34
2022/04/07 01:39:44;;;;;;;6.28;1.85;;;;;;;8.48;100.00;99064.94;5073125;28;20353;-34
2022/04/07 01:42:13;;;;;;;4.05;1.40;;;;;;;8.52;100.00;99062.56;5073052;28;20158;-34
2022/04/07 01:44:48;;;;;;;5.32;1.80;;;;;;;8.45;100.00;99040.44;5072867;28;20033;-35
2022/04/07 01:47:19;;;;;;;5.43;1.40;;;;;;;8.60;100.00;99058.56;5073372;28;20080;-35
2022/04/07 01:49:46;;;;;;;5.30;1.50;;;;;;;8.51;100.00;99034.81;5073275;28;20036;-34
2022/04/07 01:52:13;;;;;;;6.70;1.85;;;;;;;8.63;100.00;99048.06;5072989;28;20036;-34
2022/04/07 01:54:43;;;;;;;6.10;1.38;;;;;;;8.59;100.00;99040.75;5072442;28;20491;-34
2022/04/07 01:57:10;;;;;;;6.15;1.85;;;;;;;8.67;100.00;99048.34;5072927;28;20063;-34
2022/04/07 01:59:36;;;;;;;5.43;1.48;;;;;;;8.62;99.86;99024.06;5072554;28;20028;-34
2022/04/07 02:02:02;;;;;;;6.53;1.80;;;;;;;8.70;99.73;99015.50;5072807;28;20078;-34
2022/04/07 02:04:27;;;;;;;5.63;1.70;;;;;;;8.73;99.53;99014.97;5073168;28;20411;-34
2022/04/07 02:06:52;;;;;;;4.22;1.42;;;;;;;8.67;99.20;99006.03;5073042;28;20059;-34
2022/04/07 02:09:18;;;;;;;5.20;1.57;;;;;;;8.78;99.11;99031.16;5072501;28;20056;-34
2022/04/07 02:11:44;;;;;;;4.83;1.70;;;;;;;8.76;99.76;99017.13;5073114;28;20028;-34
2022/04/07 02:14:10;;;;;;;5.03;1.40;;;;;;;8.78;98.89;99017.66;5073133;28;20032;-34
2022/04/07 02:16:35;;;;;;;4.60;1.47;;;;;;;8.80;99.14;99020.94;5072672;28;20127;-34
2022/04/07 02:19:00;;;;;;;4.13;1.67;;;;;;;8.79;99.35;99005.84;5072716;28;20743;-34
2022/04/07 02:21:26;;;;;;;8.03;2.27;;;;;;;8.74;98.57;98984.25;5072933;28;20028;-34
2022/04/07 02:23:52;;;;;;;5.63;1.73;;;;;;;8.80;98.94;98993.97;5072536;28;20025;-34
2022/04/07 02:26:17;;;;;;;7.65;2.13;;;;;;;8.81;98.80;98984.00;5072564;28;20504;-34
2022/04/07 02:28:43;;;;;;;5.43;1.67;;;;;;;8.74;98.63;98979.69;5072317;28;20033;-34
2022/04/07 02:31:10;;;;;;;8.07;1.90;;;;;;;8.76;99.25;98999.09;5072808;28;20282;-34
2022/04/07 02:33:37;;;;;;;6.35;2.08;;;;;;;8.81;98.82;98990.19;5072161;28;20384;-34
2022/04/07 02:36:07;;;;;;;8.23;2.42;;;;;;;8.80;98.68;98982.41;5072759;28;20121;-34
2022/04/07 02:38:34;;;;;;;7.00;1.70;;;;;;;8.84;97.95;98984.28;5072912;28;20024;-34
2022/04/07 02:40:59;;;;;;;6.35;1.70;;;;;;;8.86;97.83;98976.75;5072226;28;20396;-34
2022/04/07 02:43:24;;;;;;;8.83;2.43;;;;;;;8.85;98.14;98975.13;5072507;28;20035;-34
2022/04/07 02:45:50;;;;;;;6.27;1.70;;;;;;;8.83;98.62;98973.75;5072628;28;20027;-34
2022/04/07 02:48:16;;;;;;;6.57;1.70;;;;;;;8.85;96.60;98958.97;5072526;28;20049;-35
2022/04/07 02:50:41;;;;;;;7.13;2.15;;;;;;;8.86;97.44;98960.56;5072355;28;20081;-35
2022/04/07 02:53:07;;;;;;;5.00;1.55;;;;;;;8.89;96.42;98949.28;5072361;28;20029;-34
2022/04/07 02:55:32;;;;;;;4.47;1.45;;;;;;;8.88;95.98;98949.50;5072635;28;20032;-35
2022/04/07 02:57:59;;;;;;;7.63;2.33;;;;;;;8.88;95.92;98934.19;5072276;28;20025;-35
2022/04/07 03:00:24;;;;;;;5.88;1.83;;;;;;;8.91;94.92;98925.53;5072770;28;20103;-35
2022/04/07 03:02:50;;;;;;;7.63;1.77;;;;;;;8.74;95.82;98892.63;5072256;28;20115;-34
2022/04/07 03:05:15;;;;;;;5.93;2.07;;;;;;;8.93;95.14;98917.19;5071980;28;20028;-35
2022/04/07 03:07:41;;;;;;;4.82;1.70;;;;;;;8.94;95.18;98903.44;5072147;28;20032;-35
2022/04/07 03:10:07;;;;;;;6.68;1.50;;;;;;;8.97;94.63;98896.69;5072984;28;20454;-35
2022/04/07 03:12:32;;;;;;;6.18;2.17;;;;;;;8.98;94.66;98892.94;5072681;28;20036;-35
2022/04/07 03:14:57;;;;;;;7.43;2.03;;;;;;;8.99;94.68;98900.75;5074905;28;20036;-35
2022/04/07 03:17:22;;;;;;;6.70;2.00;;;;;;;8.92;94.74;98873.25;5075827;28;20032;-35
2022/04/07 03:19:48;;;;;;;9.67;2.80;;;;;;;8.97;94.44;98869.75;5076440;28;20429;-35
2022/04/07 03:22:15;;;;;;;5.50;1.53;;;;;;;9.04;93.91;98864.91;5075997;28;20052;-35
2022/04/07 03:24:41;;;;;;;8.32;2.17;;;;;;;9.05;94.30;98871.91;5075882;28;20074;-35
2022/04/07 03:27:07;;;;;;;8.85;1.92;;;;;;;9.08;93.16;98866.00;5075155;28;20435;-34
2022/04/07 03:29:32;;;;;;;6.85;2.22;;;;;;;9.08;92.70;98863.31;5075541;28;20021;-34
2022/04/07 03:31:58;;;;;;;5.60;2.07;;;;;;;9.10;92.35;98857.63;5075574;28;20036;-34
2022/04/07 03:34:24;;;;;;;4.85;1.90;;;;;;;8.97;92.37;98827.41;5075190;28;20078;-34
2022/04/07 03:36:49;;;;;;;5.70;1.20;;;;;;;9.13;91.91;98849.00;5075660;28;20029;-34
2022/04/07 03:39:14;;;;;;;8.07;1.87;;;;;;;9.10;91.56;98836.06;5075691;28;20274;-34
2022/04/07 03:41:40;;;;;;;7.40;2.27;;;;;;;9.18;90.93;98840.91;5075699;28;20036;-34
2022/04/07 03:44:09;;;;;;;5.83;1.83;;;;;;;9.22;90.99;98841.97;5075387;28;20029;-34
2022/04/07 03:46:35;;;;;;;7.15;2.10;;;;;;;9.17;90.87;98834.69;5075019;28;20085;-34
2022/04/07 03:49:00;;;;;;;5.85;1.63;;;;;;;9.12;91.73;98801.53;5075644;28;20044;-34
2022/04/07 03:51:26;;;;;;;5.50;1.90;;;;;;;9.19;91.34;98813.66;5075706;28;20028;-34
2022/04/07 03:53:51;;;;;;;5.50;1.80;;;;;;;9.08;92.07;98811.25;5075980;28;20036;-34
2022/04/07 03:56:16;;;;;;;7.00;1.90;;;;;;;9.16;91.83;98818.78;5075398;28;20027;-34
2022/04/07 03:58:42;;;;;;;3.87;1.50;;;;;;;9.15;92.53;98809.09;5075093;28;20423;-34
2022/04/07 04:01:07;;;;;;;7.07;1.50;;;;;;;9.11;92.70;98799.91;5074812;28;20082;-35
2022/04/07 04:03:32;;;;;;;6.90;1.73;;;;;;;9.10;92.97;98804.50;5074902;28;20029;-35
2022/04/07 04:05:58;;;;;;;5.73;1.90;;;;;;;9.09;93.42;98783.22;5075244;28;20255;-34
2022/04/07 04:08:23;;;;;;;3.77;1.70;;;;;;;9.05;93.60;98804.50;5074971;28;20443;-35
2022/04/07 04:10:48;;;;;;;5.07;1.57;;;;;;;9.08;93.14;98770.78;5074742;28;20029;-34
2022/04/07 04:13:14;;;;;;;4.60;1.70;;;;;;;9.04;93.21;98759.75;5074980;28;20078;-34
2022/04/07 04:15:39;;;;;;;8.02;1.75;;;;;;;8.93;92.73;98729.31;5074805;28;20098;-35
2022/04/07 04:18:05;;;;;;;6.07;1.93;;;;;;;9.05;91.75;98720.13;5074974;28;20036;-35
2022/04/07 04:20:30;;;;;;;5.72;1.80;;;;;;;9.06;91.87;98713.66;5074595;28;20059;-35
2022/04/07 04:22:55;;;;;;;6.10;1.60;;;;;;;9.03;92.05;98685.38;5073371;28;20029;-35
2022/04/07 04:25:22;;;;;;;3.90;1.33;;;;;;;9.03;92.12;98683.47;5074525;28;20024;-35
2022/04/07 04:27:48;;;;;;;6.88;1.70;;;;;;;9.06;92.07;98694.78;5074372;28;20107;-35
2022/04/07 04:30:13;;;;;;;5.47;1.50;;;;;;;9.06;92.08;98690.19;5074487;28;20048;-35
2022/04/07 04:32:39;;;;;;;4.72;1.33;;;;;;;9.08;91.33;98692.59;5074039;28;20032;-35
2022/04/07 04:35:05;;;;;;;4.55;1.65;;;;;;;9.02;91.35;98657.56;5074359;28;20020;-35
2022/04/07 04:37:31;;;;;;;3.92;1.30;;;;;;;9.05;91.31;98660.81;5074740;28;20029;-34
2022/04/07 04:39:56;;;;;;;6.55;1.58;;;;;;;9.09;90.78;98651.09;5074346;28;20101;-35
2022/04/07 04:42:22;;;;;;;4.00;1.47;;;;;;;9.07;90.75;98651.34;5074239;28;20358;-34
2022/04/07 04:44:47;;;;;;;5.83;1.37;;;;;;;9.20;90.22;98668.84;5074618;28;20023;-35
2022/04/07 04:47:13;;;;;;;4.10;1.48;;;;;;;9.20;90.75;98666.97;5074119;28;20483;-35
2022/04/07 04:49:42;;;;;;;4.13;1.10;;;;;;;9.21;91.08;98643.50;5074720;28;20128;-35
2022/04/07 04:52:11;;;;;;;3.80;1.20;;;;;;;9.17;91.26;98642.44;5073917;28;20111;-34
2022/04/07 04:54:37;;;;;;;2.97;0.98;;;;;;;9.17;91.59;98639.72;5074683;28;20028;-35
2022/04/07 04:57:02;;;;;;;3.55;1.30;;;;;;;9.14;92.90;98627.63;5073902;28;20044;-35
2022/04/07 04:59:28;;;;;;;4.20;1.17;;;;;;;9.12;93.17;98620.88;5073851;28;20056;-34
2022/04/07 05:01:53;;;;;;;2.60;1.00;;;;;;;9.07;94.75;98616.31;5073661;28;20028;-35
2022/04/07 05:04:18;;;;;;;3.13;1.20;;;;;;;8.95;94.70;98586.19;5073863;28;20033;-35
2022/04/07 05:06:44;;;;;;;2.50;1.20;;;;;;;9.03;95.05;98594.50;5074445;28;20020;-35
2022/04/07 05:09:09;;;;;;;2.70;0.83;;;;;;;8.96;95.46;98567.03;5074329;28;20029;-34
2022/04/07 05:11:34;;;;;;;1.90;0.87;;;;;;;9.02;95.73;98587.47;5074530;28;20044;-35
2022/04/07 05:14:01;;;;;;;2.43;0.90;;;;;;;9.05;95.61;98590.72;5072766;28;20028;-35
2022/04/07 05:16:26;;;;;;;1.60;0.70;;;;;;;9.03;95.96;98583.72;5072822;28;20259;-35
2022/04/07 05:18:52;;;;;;;2.70;0.90;;;;;;;9.05;95.90;98571.84;5072267;28;20439;-35
2022/04/07 05:21:17;;;;;;;3.33;1.10;;;;;;;9.05;96.14;98579.94;5074319;28;20103;-35
2022/04/07 05:23:43;;;;;;;2.07;0.87;;;;;;;9.00;96.13;98559.19;5073699;28;20365;-35
2022/04/07 05:26:09;;;;;;;3.20;0.90;;;;;;;8.93;96.48;98537.94;5073710;28;20052;-35
2022/04/07 05:28:34;;;;;;;2.53;0.90;;;;;;;8.99;97.46;98546.81;5073199;28;20477;-35
2022/04/07 05:30:59;;;;;;;4.30;0.83;;;;;;;8.86;98.41;98533.91;5073681;28;20032;-35
2022/04/07 05:33:25;;;;;;;2.17;0.77;;;;;;;8.90;99.03;98525.00;5072502;28;20049;-34
2022/04/07 05:35:51;;;;;;;2.45;1.30;;;;;;;8.75;100.00;98527.78;5073679;28;20055;-35
2022/04/07 05:38:16;;;;;;;9.20;1.40;;;;;;;8.82;100.00;98527.47;5072316;28;20047;-35
2022/04/07 05:40:42;;;;;;;2.75;1.17;;;;;;;8.76;100.00;98527.47;5073610;28;20094;-35
2022/04/07 05:43:08;;;;;;;;;;;;;;;8.76;100.00;98518.59;5073640;28;20040;-34
2022/04/07 05:45:34;;;;;;;6.80;1.85;;;;;;;8.63;100.00;98509.19;5073088;28;19912;-35
2022/04/07 05:47:59;;;;;;;;;;;;;;;8.71;100.00;98511.34;5073315;28;20554;-35
2022/04/07 05:50:25;;;;;;;2.83;1.43;;;;;;;8.64;100.00;98510.03;5073044;28;19913;-34
2022/04/07 05:52:50;;;;;;;3.33;1.47;;;;;;;8.61;100.00;98494.41;5073097;28;20274;-35
2022/04/07 05:55:15;;;;;;;2.93;1.07;;;;;;;8.56;100.00;98491.72;5073102;28;20034;-35
2022/04/07 05:57:41;;;;;;;2.90;1.23;;;;;;;8.51;100.00;98487.16;5072913;28;20036;-35
2022/04/07 06:00:08;;;;;;;3.43;1.63;;;;;;;8.49;100.00;98476.69;5073345;28;20059;-35
2022/04/07 06:02:33;;;;;;;4.30;1.50;;;;;;;8.41;100.00;98462.97;5073115;28;20108;-34
2022/04/07 06:04:58;;;;;;;2.83;1.30;;;;;;;8.45;100.00;98459.44;5072917;28;20665;-34
2022/04/07 06:07:24;;;;;;;3.03;1.60;;;;;;;8.36;100.00;98439.56;5072235;28;20040;-34
2022/04/07 06:09:49;;;;;;;6.83;2.17;;;;;;;8.42;100.00;98451.09;5072978;28;20033;-34
2022/04/07 06:12:14;;;;;;;4.35;1.65;;;;;;;8.41;100.00;98434.16;5073085;28;20115;-35
2022/04/07 06:14:40;;;;;;;2.33;1.40;;;;;;;8.40;100.00;98445.19;5072665;28;20029;-34
2022/04/07 06:17:05;;;;;;;4.30;1.70;;;;;;;8.34;100.00;98416.63;5073149;28;20024;-34
2022/04/07 06:19:30;;;;;;;4.47;1.70;;;;;;;8.27;100.00;98408.84;5072810;28;20029;-34
2022/04/07 06:21:56;;;;;;;4.13;1.67;;;;;;;8.40;100.00;98420.97;5073492;28;20368;-34
2022/04/07 06:24:21;;;;;;;3.20;1.70;;;;;;;8.41;100.00;98409.91;5073474;28;20468;-35
2022/04/07 06:26:49;;;;;;;3.00;1.73;;;;;;;8.28;100.00;98391.63;5072676;28;20032;-35
2022/04/07 06:29:14;;;;;;;3.28;1.50;;;;;;;8.38;100.00;98413.13;5072502;28;20495;-36
2022/04/07 06:31:39;;;;;;;3.50;1.60;;;;;;;8.38;100.00;98399.69;5072901;28;20060;-35
2022/04/07 06:34:05;;;;;;;6.10;1.63;;;;;;;8.37;100.00;98403.47;5072580;28;20413;-35
2022/04/07 06:36:30;;;;;;;3.93;1.60;;;;;;;8.38;100.00;98401.56;5072637;28;20027;-35
2022/04/07 06:38:55;;;;;;;2.87;1.60;;;;;;;8.39;100.00;98393.19;5072607;28;20039;-35
2022/04/07 06:41:20;;;;;;;5.00;1.80;;;;;;;8.35;100.00;98378.69;5073148;28;20060;-35
2022/04/07 06:43:46;;;;;;;7.40;1.93;;;;;;;8.33;100.00;98364.66;5072827;28;20032;-35
2022/04/07 06:46:11;;;;;;;3.93;1.80;;;;;;;8.35;100.00;98356.31;5072568;28;20114;-35
2022/04/07 06:48:37;;;;;;;5.45;1.92;;;;;;;8.35;100.00;98351.75;5073626;28;20128;-35
2022/04/07 06:51:02;;;;;;;4.60;1.80;;;;;;;8.34;100.00;98341.22;5077016;28;20107;-35
2022/04/07 06:53:27;;;;;;;4.27;1.50;;;;;;;8.33;100.00;98337.72;5076938;28;20107;-35
2022/04/07 06:55:53;;;;;;;4.70;1.67;;;;;;;8.31;100.00;98323.75;5076697;28;20024;-35
2022/04/07 06:58:18;;;;;;;7.13;1.63;;;;;;;8.33;100.00;98316.19;5076121;28;20444;-35
2022/04/07 07:00:45;;;;;;;4.90;2.10;;;;;;;8.32;100.00;98295.75;5076656;28;20063;-35
2022/04/07 07:03:12;;;;;;;3.17;1.30;;;;;;;8.33;100.00;98293.84;5076449;28;20046;-35
2022/04/07 07:05:38;;;;;;;5.35;1.30;;;;;;;8.32;100.00;98287.66;5076186;28;20115;-35
2022/04/07 07:08:29;;;;;;;5.57;2.00;;;;;;;8.33;100.00;98293.84;5076163;28;20021;-35
2022/04/07 07:10:55;;;;;;;4.75;1.40;;;;;;;8.29;100.00;98284.72;5075186;28;20036;-35
2022/04/07 07:13:22;;;;;;;3.10;1.02;;;;;;;8.27;100.00;98264.25;5075680;28;20029;-35
2022/04/07 07:15:48;;;;;;;5.00;1.25;;;;;;;8.25;100.00;98271.03;5076776;28;20070;-35
2022/04/07 07:18:14;;;;;;;4.32;1.25;;;;;;;8.25;100.00;98261.06;5076258;28;20410;-35
2022/04/07 07:20:40;;;;;;;2.90;1.08;;;;;;;8.25;100.00;98247.59;5076287;28;20082;-35
2022/04/07 07:23:07;;;;;;;4.90;1.38;;;;;;;8.22;100.00;98233.88;5076128;28;20021;-35
2022/04/07 07:25:32;;;;;;;3.92;1.48;;;;;;;8.19;100.00;98240.63;5076360;28;20032;-35
2022/04/07 07:27:59;;;;;;;4.28;1.10;;;;;;;8.21;100.00;98251.13;5076119;28;20025;-35
2022/04/07 07:30:24;;;;;;;;;;;;;;;8.27;100.00;98290.38;5076604;28;20037;-35
2022/04/07 07:32:51;;;;;;;2.15;0.93;;;;;;;8.29;100.00;98308.94;5075710;28;20319;-35
2022/04/07 07:35:17;;;;;;;2.20;0.68;;;;;;;7.96;100.00;98335.50;5075654;28;20129;-35
2022/04/07 07:37:59;;;;;;;2.67;0.60;;;;;;;7.52;100.00;98305.78;5075723;28;20070;-35
2022/04/07 07:40:27;;;;;;;5.07;0.70;;;;;;;7.07;100.00;98339.66;5076103;28;20029;-35
2022/04/07 07:42:55;;;;;;;2.10;0.60;;;;;;;6.72;100.00;98290.22;5075494;28;20345;-44
2022/04/07 07:45:21;;;;;;;1.60;0.50;;;;;;;6.69;100.00;98294.28;5073823;28;20437;-35
2022/04/07 07:47:47;;;;;;;;;;;;;;;6.66;100.00;98327.03;5076006;28;20045;-35
2022/04/07 07:50:12;;;;;;;2.23;0.80;;;;;;;6.50;100.00;98367.53;5075203;28;20357;-34
2022/04/07 07:52:37;;;;;;;2.40;0.50;;;;;;;6.41;100.00;98400.25;5075654;28;20259;-34
2022/04/07 07:55:03;;;;;;;4.87;0.77;;;;;;;6.35;100.00;98393.28;5075837;28;20035;-34
2022/04/07 07:57:30;;;;;;;1.33;0.60;;;;;;;6.30;100.00;98390.56;5075942;28;20294;-34
2022/04/07 07:59:57;;;;;;;2.50;0.70;;;;;;;6.28;100.00;98379.28;5075213;28;20107;-35
2022/04/07 08:02:22;;;;;;;2.40;0.93;;;;;;;6.22;100.00;98363.44;5074584;28;20362;-34
2022/04/07 08:04:48;;;;;;;2.07;0.70;;;;;;;6.17;100.00;98345.44;5074857;28;20025;-34
2022/04/07 08:07:13;;;;;;;2.27;0.83;;;;;;;6.18;100.00;98352.41;5075193;28;20437;-35
2022/04/07 08:09:39;;;;;;;1.92;1.15;;;;;;;6.18;100.00;98349.72;5075689;28;20064;-34
2022/04/07 08:12:04;;;;;;;2.53;1.00;;;;;;;6.16;100.00;98336.56;5075021;28;20029;-34
2022/04/07 08:14:30;;;;;;;1.92;0.88;;;;;;;6.29;100.00;98347.88;5075076;28;20711;-34
2022/04/07 08:16:56;;;;;;;2.35;0.90;;;;;;;6.35;100.00;98346.84;5075030;28;20035;-35
2022/04/07 08:19:22;;;;;;;3.55;0.90;;;;;;;6.41;100.00;98335.03;5075631;28;20025;-35
2022/04/07 08:21:47;;;;;;;2.67;0.80;;;;;;;6.41;100.00;98335.84;5075124;28;20052;-35
2022/04/07 08:24:12;;;;;;;2.47;0.90;;;;;;;6.50;100.00;98346.06;5073448;28;20282;-35
2022/04/07 08:26:38;;;;;;;4.60;1.20;;;;;;;6.59;100.00;98357.91;5075036;28;20108;-35
2022/04/07 08:29:03;;;;;;;2.90;1.00;;;;;;;6.65;100.00;98354.16;5074658;28;20036;-35
2022/04/07 08:31:29;;;;;;;2.63;1.10;;;;;;;6.75;100.00;98340.75;5074825;28;20028;-35
2022/04/07 08:33:54;;;;;;;2.83;0.95;;;;;;;6.82;100.00;98310.91;5074345;28;20360;-35
2022/04/07 08:36:20;;;;;;;3.10;1.03;;;;;;;6.87;100.00;98327.84;5075594;28;20028;-35
2022/04/07 08:38:45;;;;;;;2.67;1.20;;;;;;;6.93;100.00;98337.53;5074397;28;20044;-35
2022/04/07 08:41:11;;;;;;;3.27;0.97;;;;;;;7.07;100.00;98337.78;5074481;28;20461;-35
2022/04/07 08:43:39;;;;;;;2.75;0.98;;;;;;;7.08;100.00;98325.19;5074349;28;20033;-35
2022/04/07 08:46:11;;;;;;;2.90;1.10;;;;;;;7.16;100.00;98338.84;5074985;28;20135;-35
2022/04/07 08:48:41;;;;;;;4.07;1.42;;;;;;;7.17;100.00;98331.59;5074442;28;20055;-35
2022/04/07 08:51:06;;;;;;;5.20;1.20;;;;;;;7.24;100.00;98324.09;5074777;28;20115;-35
2022/04/07 08:53:33;;;;;;;4.47;1.67;;;;;;;7.29;100.00;98325.97;5074119;28;20492;-35
2022/04/07 08:56:04;;;;;;;4.07;1.17;;;;;;;7.37;100.00;98314.63;5074581;28;20067;-35
2022/04/07 08:58:30;;;;;;;2.25;0.90;;;;;;;7.64;100.00;98312.44;5074360;28;20362;-35
2022/04/07 09:00:55;;;;;;;3.38;1.10;;;;;;;7.86;100.00;98314.81;5074461;28;20051;-35
2022/04/07 09:03:21;;;;;;;3.53;0.83;;;;;;;8.07;100.00;98326.28;5074263;28;20033;-34
2022/04/07 09:06:01;;;;;;;3.45;1.00;;;;;;;8.14;100.00;98332.16;5072683;28;20465;-34
2022/04/07 09:08:34;;;;;;;3.20;1.00;;;;;;;8.17;100.00;98334.31;5074051;28;20035;-35
2022/04/07 09:11:02;;;;;;;4.47;1.70;;;;;;;8.17;100.00;98330.81;5074512;28;20033;-35
2022/04/07 09:13:31;;;;;;;1.73;0.82;;;;;;;8.36;100.00;98325.63;5073624;28;20202;-35
2022/04/07 09:15:59;;;;;;;3.33;1.00;;;;;;;8.56;100.00;98330.91;5073729;28;20103;-35
2022/04/07 09:18:25;;;;;;;2.85;1.00;;;;;;;8.56;100.00;98322.03;5073554;28;20059;-34
2022/04/07 09:20:51;;;;;;;6.03;1.00;;;;;;;8.79;100.00;98331.31;5073887;28;20064;-35
2022/04/07 09:23:17;;;;;;;3.85;1.08;;;;;;;8.94;100.00;98331.22;5071967;28;20111;-35
2022/04/07 09:25:52;;;;;;;2.35;1.02;;;;;;;9.16;100.00;98333.44;5074046;28;20032;-35
2022/04/07 09:28:43;;;;;;;2.38;0.90;;;;;;;9.32;100.00;98342.19;5074107;28;20028;-35
2022/04/07 09:31:13;;;;;;;4.28;1.13;;;;;;;9.44;100.00;98346.13;5072233;28;20036;-35
2022/04/07 09:33:39;;;;;;;6.07;0.90;;;;;;;9.52;99.74;98342.84;5073229;28;20033;-35
2022/04/07 09:36:06;;;;;;;5.65;0.95;;;;;;;9.53;97.28;98344.44;5074225;28;20092;-35
2022/04/07 09:38:34;;;;;;;4.82;0.95;;;;;;;9.59;97.54;98333.59;5073030;28;20029;-35
2022/04/07 09:41:06;;;;;;;3.92;0.90;;;;;;;9.59;97.73;98328.19;5073198;28;20039;-35
2022/04/07 09:43:58;;;;;;;5.25;1.05;;;;;;;9.83;95.46;98330.91;5073580;28;20043;-34
2022/04/07 09:46:24;;;;;;;4.50;1.00;;;;;;;9.75;91.09;98340.44;5072101;28;20035;-35
2022/04/07 09:49:00;;;;;;;;;;;;;;;9.82;91.70;98340.91;5072278;28;20052;-35
2022/04/07 09:51:29;;;;;;;4.00;1.00;;;;;;;9.74;86.19;98328.84;5074127;28;20255;-35
2022/04/07 09:53:56;;;;;;;3.70;0.90;;;;;;;9.92;86.48;98329.19;5073233;28;20423;-35
2022/04/07 09:56:26;;;;;;;3.60;1.00;;;;;;;10.00;88.18;98332.06;5073776;28;20107;-35
2022/04/07 09:58:53;;;;;;;3.53;1.00;;;;;;;10.16;86.15;98339.97;5073433;28;20078;-35
2022/04/07 10:01:18;;;;;;;2.90;1.08;;;;;;;10.12;83.62;98322.75;5072692;28;20416;-36
2022/04/07 10:03:44;;;;;;;3.30;1.00;;;;;;;9.95;80.52;98334.00;5072213;28;20020;-35
2022/04/07 10:06:14;;;;;;;2.88;0.75;;;;;;;10.08;81.92;98341.41;5072950;28;20036;-35
2022/04/07 10:08:42;;;;;;;2.70;0.90;;;;;;;10.42;84.43;98335.06;5072748;28;20033;-35
2022/04/07 10:11:08;;;;;;;3.47;1.23;;;;;;;10.54;78.39;98344.38;5073130;28;20142;-35
2022/04/07 10:13:36;;;;;;;3.67;1.10;;;;;;;10.62;77.98;98364.50;5072816;28;20069;-35
2022/04/07 10:16:03;;;;;;;3.45;1.10;;;;;;;10.52;74.79;98362.75;5073656;28;20029;-35
2022/04/07 10:18:39;;;;;;;3.40;1.05;;;;;;;10.58;75.01;98348.06;5072835;28;20032;-35
2022/04/07 10:21:06;;;;;;;5.25;1.52;;;;;;;10.68;75.99;98335.50;5072972;28;20020;-35
2022/04/07 10:24:19;;;;;;;3.30;1.00;;;;;;;11.02;76.85;98356.91;5073181;28;20490;-35
2022/04/07 10:26:46;;;;;;;5.07;1.40;;;;;;;10.79;74.63;98354.00;5054719;28;20187;-35
2022/04/07 10:29:22;;;;;;;5.95;1.33;;;;;;;10.86;75.77;98371.75;5054662;28;20090;-35
2022/04/07 10:32:09;;;;;;;3.20;1.35;;;;;;;10.87;73.58;98384.97;5054920;28;20037;-35
2022/04/07 10:34:35;;;;;;;5.07;1.40;;;;;;;10.94;71.46;98379.22;5054329;28;20127;-34
2022/04/07 10:37:06;;;;;;;6.35;1.38;;;;;;;10.77;69.63;98377.00;5054548;28;20032;-36
2022/04/07 10:39:32;;;;;;;7.35;1.45;;;;;;;10.65;69.31;98390.19;5054391;28;20092;-34
2022/04/07 10:41:58;;;;;;;;;;;;;;;10.61;69.11;98394.53;5038497;28;20094;-35
2022/04/07 10:44:28;;;;;;;5.28;1.33;;;;;;;10.22;67.91;98372.03;5054400;28;19913;-35
2022/04/07 10:47:07;;;;;;;5.65;1.38;;;;;;;10.43;67.01;98383.41;5054578;28;20067;-35
2022/04/07 10:49:33;;;;;;;4.10;1.23;;;;;;;10.72;65.42;98390.59;5054200;28;20132;-34
2022/04/07 10:52:02;;;;;;;5.82;1.42;;;;;;;10.79;64.59;98407.28;5054976;28;20351;-35
2022/04/07 10:54:31;;;;;;;3.67;1.40;;;;;;;10.97;64.60;98425.38;5054070;28;20028;-35
2022/04/07 10:57:00;;;;;;;5.03;1.73;;;;;;;10.89;66.14;98428.75;5061656;28;20370;-35
2022/04/07 10:59:27;;;;;;;4.53;1.65;;;;;;;11.04;65.81;98415.03;5076507;28;20032;-35
2022/04/07 11:02:12;;;;;;;6.90;1.55;;;;;;;10.97;65.50;98413.78;5076753;28;20032;-34
2022/04/07 11:04:59;;;;;;;5.18;1.50;;;;;;;10.82;64.57;98429.09;5075120;28;20029;-35
2022/04/07 11:07:25;;;;;;;7.88;2.47;;;;;;;10.61;66.08;98438.59;5076066;28;20028;-35
2022/04/07 11:09:53;;;;;;;5.47;2.03;;;;;;;10.46;66.40;98431.47;5075279;28;20120;-35
2022/04/07 11:12:25;;;;;;;5.57;1.70;;;;;;;10.52;68.20;98433.00;5076203;28;20032;-35
2022/04/07 11:14:54;;;;;;;4.85;1.40;;;;;;;10.58;67.90;98417.53;5076243;28;20028;-35
2022/04/07 11:17:48;;;;;;;6.63;1.50;;;;;;;10.69;67.23;98445.25;5076589;28;20169;-35
2022/04/07 11:20:21;;;;;;;5.60;1.50;;;;;;;10.47;65.67;98446.59;5075794;28;20085;-35
2022/04/07 11:22:55;;;;;;;7.45;1.65;;;;;;;10.41;65.94;98455.06;5075792;28;20100;-35
2022/04/07 11:25:20;;;;;;;4.53;1.77;;;;;;;10.31;66.66;98458.66;5075046;28;20484;-35
2022/04/07 11:28:04;;;;;;;8.27;2.37;;;;;;;10.19;69.23;98472.53;5076145;28;20037;-35
2022/04/07 11:30:43;;;;;;;6.10;1.80;;;;;;;10.04;71.41;98459.19;5075717;28;20490;-35
2022/04/07 11:33:25;;;;;;;7.07;2.65;;;;;;;9.94;71.60;98492.47;5075855;28;20032;-35
2022/04/07 11:35:59;;;;;;;7.47;2.25;;;;;;;9.76;71.58;98468.88;5076510;28;20119;-35
2022/04/07 11:38:29;;;;;;;7.28;1.63;;;;;;;9.85;71.65;98490.66;5074505;28;20021;-35
2022/04/07 11:41:05;;;;;;;5.90;1.90;;;;;;;9.75;71.28;98486.16;5075472;28;20032;-35